createdAt,value
2023-04-02T00:02:22.026Z,19.82
2023-04-02T00:05:16.586Z,19.81
2023-04-02T00:07:49.010Z,19.81
2023-04-02T00:10:50.450Z,19.81
2023-04-02T00:13:24.551Z,19.81
2023-04-02T00:15:57.843Z,19.81
2023-04-02T00:18:26.901Z,19.80
2023-04-02T00:20:58.282Z,19.80
2023-04-02T00:23:25.514Z,19.79
2023-04-02T00:25:52.829Z,19.80
2023-04-02T00:28:22.596Z,19.79
2023-04-02T00:30:53.880Z,19.78
2023-04-02T00:33:24.584Z,19.79
2023-04-02T00:35:55.022Z,19.79
2023-04-02T00:38:29.913Z,19.78
2023-04-02T00:41:01.704Z,19.78
2023-04-02T00:43:32.514Z,19.78
2023-04-02T00:46:03.989Z,19.76
2023-04-02T00:48:31.674Z,19.77
2023-04-02T00:51:30.045Z,19.76
2023-04-02T00:54:01.630Z,19.77
2023-04-02T00:56:33.259Z,19.74
2023-04-02T00:59:00.945Z,19.76
2023-04-02T01:01:35.830Z,19.75
2023-04-02T01:04:05.795Z,19.74
2023-04-02T01:06:37.393Z,19.74
2023-04-02T01:09:33.728Z,19.74
2023-04-02T01:12:29.837Z,19.74
2023-04-02T01:15:18.861Z,19.74
2023-04-02T01:18:31.673Z,19.74
2023-04-02T01:21:28.220Z,19.73
2023-04-02T01:24:04.448Z,19.73
2023-04-02T01:27:10.705Z,19.73
2023-04-02T01:29:42.075Z,19.73
2023-04-02T01:32:13.365Z,19.72
2023-04-02T01:34:44.761Z,19.73
2023-04-02T01:37:22.302Z,19.72
2023-04-02T01:40:14.782Z,19.73
2023-04-02T01:42:57.191Z,19.74
2023-04-02T01:45:25.154Z,19.73
2023-04-02T01:47:53.015Z,19.73
2023-04-02T01:50:20.266Z,19.73
2023-04-02T01:52:51.125Z,19.72
2023-04-02T01:55:25.516Z,19.73
2023-04-02T01:57:54.447Z,19.73
2023-04-02T02:00:22.778Z,19.73
2023-04-02T02:02:55.205Z,19.74
2023-04-02T02:05:23.952Z,19.73
2023-04-02T02:07:56.343Z,19.74
2023-04-02T02:10:26.503Z,19.74
2023-04-02T02:12:54.234Z,19.74
2023-04-02T02:15:24.207Z,19.73
2023-04-02T02:17:57.896Z,19.73
2023-04-02T02:20:28.017Z,19.73
2023-04-02T02:22:56.487Z,19.73
2023-04-02T02:25:36.314Z,19.72
2023-04-02T02:28:13.403Z,19.72
2023-04-02T02:30:48.320Z,19.72
2023-04-02T02:33:18.735Z,19.72
2023-04-02T02:36:36.715Z,19.73
2023-04-02T02:39:16.486Z,19.72
2023-04-02T02:41:53.068Z,19.73
2023-04-02T02:44:35.250Z,19.72
2023-04-02T02:47:06.937Z,19.70
2023-04-02T02:49:39.646Z,19.70
2023-04-02T02:52:10.695Z,19.70
2023-04-02T02:54:52.281Z,19.69
2023-04-02T02:57:35.297Z,19.70
2023-04-02T03:00:06.403Z,19.69
2023-04-02T03:02:38.547Z,19.69
2023-04-02T03:05:09.195Z,19.69
2023-04-02T03:07:37.410Z,19.69
2023-04-02T03:10:25.532Z,19.69
2023-04-02T03:13:15.865Z,19.68
2023-04-02T03:16:21.052Z,19.68
2023-04-02T03:19:01.194Z,19.67
2023-04-02T03:21:39.098Z,19.68
2023-04-02T03:24:18.655Z,19.67
2023-04-02T03:26:58.084Z,19.67
2023-04-02T03:29:30.084Z,19.67
2023-04-02T03:32:06.706Z,19.66
2023-04-02T03:34:41.420Z,19.65
2023-04-02T03:37:25.884Z,19.66
2023-04-02T03:40:09.741Z,19.66
2023-04-02T03:42:49.441Z,19.66
2023-04-02T03:45:22.319Z,19.65
2023-04-02T03:47:52.454Z,19.66
2023-04-02T03:50:31.812Z,19.65
2023-04-02T03:53:03.553Z,19.65
2023-04-02T03:55:35.617Z,19.65
2023-04-02T03:58:27.086Z,19.65
2023-04-02T04:01:00.476Z,19.65
2023-04-02T04:03:45.828Z,19.65
2023-04-02T04:06:32.107Z,19.64
2023-04-02T04:09:07.442Z,19.65
2023-04-02T04:11:39.622Z,19.64
2023-04-02T04:14:18.501Z,19.63
2023-04-02T04:16:57.272Z,19.64
2023-04-02T04:19:38.424Z,19.64
2023-04-02T04:22:30.262Z,19.64
2023-04-02T04:25:06.894Z,19.64
2023-04-02T04:27:48.731Z,19.64
2023-04-02T04:30:27.501Z,19.65
2023-04-02T04:35:45.510Z,19.65
2023-04-02T04:38:44.371Z,19.64
2023-04-02T04:41:22.545Z,19.63
2023-04-02T04:43:56.236Z,19.63
2023-04-02T04:46:31.101Z,19.64
2023-04-02T04:49:09.857Z,19.63
2023-04-02T04:51:50.581Z,19.62
2023-04-02T04:54:20.112Z,19.63
2023-04-02T04:57:00.339Z,19.63
2023-04-02T04:59:32.655Z,19.62
2023-04-02T05:02:07.620Z,19.62
2023-04-02T05:04:39.016Z,19.62
2023-04-02T05:07:26.074Z,19.61
2023-04-02T05:10:04.372Z,19.61
2023-04-02T05:13:01.871Z,19.61
2023-04-02T05:15:45.830Z,19.61
2023-04-02T05:18:36.894Z,19.60
2023-04-02T05:21:20.348Z,19.60
2023-04-02T05:24:20.872Z,19.61
2023-04-02T05:26:51.611Z,19.61
2023-04-02T05:29:25.801Z,19.60
2023-04-02T05:32:02.213Z,19.60
2023-04-02T05:34:35.285Z,19.60
2023-04-02T05:37:07.041Z,19.60
2023-04-02T05:39:35.286Z,19.60
2023-04-02T05:42:14.581Z,19.59
2023-04-02T05:45:04.102Z,19.59
2023-04-02T05:47:33.699Z,19.59
2023-04-02T05:50:09.549Z,19.60
2023-04-02T05:52:50.445Z,19.59
2023-04-02T05:55:17.675Z,19.59
2023-04-02T05:58:13.364Z,19.58
2023-04-02T06:01:07.797Z,19.58
2023-04-02T06:03:46.349Z,19.59
2023-04-02T06:06:29.170Z,19.58
2023-04-02T06:09:05.613Z,19.58
2023-04-02T06:11:42.295Z,19.57
2023-04-02T06:14:16.792Z,19.58
2023-04-02T06:16:46.362Z,19.57
2023-04-02T06:19:28.249Z,19.58
2023-04-02T06:22:07.411Z,19.56
2023-04-02T06:24:39.901Z,19.56
2023-04-02T06:27:12.866Z,19.56
2023-04-02T06:29:45.913Z,19.56
2023-04-02T06:32:21.089Z,19.56
2023-04-02T06:34:48.671Z,19.56
2023-04-02T06:37:33.607Z,19.56
2023-04-02T06:40:33.357Z,19.56
2023-04-02T06:43:17.268Z,19.56
2023-04-02T06:46:23.530Z,19.55
2023-04-02T06:49:26.071Z,19.55
2023-04-02T06:52:01.846Z,19.56
2023-04-02T06:54:31.372Z,19.56
2023-04-02T06:57:04.690Z,19.55
2023-04-02T06:59:35.858Z,19.56
2023-04-02T07:02:26.934Z,19.54
2023-04-02T07:05:01.565Z,19.55
2023-04-02T07:07:29.867Z,19.54
2023-04-02T07:09:57.653Z,19.56
2023-04-02T07:12:25.967Z,19.56
2023-04-02T07:14:53.879Z,19.55
2023-04-02T07:17:22.192Z,19.55
2023-04-02T07:19:50.094Z,19.55
2023-04-02T07:22:20.626Z,19.56
2023-04-02T07:24:52.690Z,19.56
2023-04-02T07:27:20.315Z,19.56
2023-04-02T07:29:47.582Z,19.55
2023-04-02T07:32:14.994Z,19.56
2023-04-02T07:34:42.427Z,19.56
2023-04-02T07:37:14.138Z,19.57
2023-04-02T07:39:41.844Z,19.57
2023-04-02T07:42:09.844Z,19.55
2023-04-02T07:44:37.170Z,19.50
2023-04-02T07:47:04.613Z,19.41
2023-04-02T07:49:32.017Z,19.35
2023-04-02T07:51:59.259Z,19.30
2023-04-02T07:54:27.170Z,19.26
2023-04-02T07:56:54.526Z,19.19
2023-04-02T07:59:22.019Z,19.14
2023-04-02T08:01:49.455Z,19.08
2023-04-02T08:04:22.292Z,19.02
2023-04-02T08:06:50.500Z,18.99
2023-04-02T08:09:18.022Z,18.96
2023-04-02T08:11:46.692Z,18.94
2023-04-02T08:14:14.658Z,18.91
2023-04-02T08:16:54.159Z,18.91
2023-04-02T08:19:22.488Z,18.87
2023-04-02T08:21:51.667Z,18.84
2023-04-02T08:24:20.473Z,18.81
2023-04-02T08:26:49.760Z,18.81
2023-04-02T08:29:17.206Z,18.83
2023-04-02T08:31:44.517Z,18.88
2023-04-02T08:34:12.136Z,18.95
2023-04-02T08:36:43.643Z,18.98
2023-04-02T08:39:11.752Z,19.03
2023-04-02T08:42:00.516Z,19.07
2023-04-02T08:45:10.848Z,19.11
2023-04-02T08:47:51.243Z,19.14
2023-04-02T08:50:34.161Z,19.16
2023-04-02T08:53:05.445Z,19.19
2023-04-02T08:55:47.819Z,19.20
2023-04-02T08:58:48.728Z,19.22
2023-04-02T09:01:22.009Z,19.25
2023-04-02T09:03:52.057Z,19.25
2023-04-02T09:06:21.343Z,19.28
2023-04-02T09:08:51.908Z,19.27
2023-04-02T09:11:23.384Z,19.27
2023-04-02T09:14:00.305Z,19.29
2023-04-02T09:16:40.918Z,19.27
2023-04-02T09:19:16.595Z,19.27
2023-04-02T09:22:14.017Z,19.26
2023-04-02T09:24:41.390Z,19.29
2023-04-02T09:27:23.226Z,19.29
2023-04-02T09:30:00.820Z,19.31
2023-04-02T09:32:37.795Z,19.31
2023-04-02T09:35:24.701Z,19.31
2023-04-02T09:38:19.369Z,19.33
2023-04-02T09:40:50.603Z,19.33
2023-04-02T09:43:26.949Z,19.35
2023-04-02T09:46:19.101Z,19.35
2023-04-02T09:49:01.501Z,19.35
2023-04-02T09:51:33.326Z,19.36
2023-04-02T09:54:03.700Z,19.37
2023-04-02T09:56:41.276Z,19.37
2023-04-02T09:59:21.974Z,19.40
2023-04-02T10:01:55.461Z,19.39
2023-04-02T10:04:45.519Z,19.38
2023-04-02T10:07:37.388Z,19.39
2023-04-02T10:10:17.670Z,19.38
2023-04-02T10:12:50.518Z,19.38
2023-04-02T10:15:23.961Z,19.38
2023-04-02T10:18:13.121Z,19.38
2023-04-02T10:20:50.822Z,19.36
2023-04-02T10:23:19.510Z,19.36
2023-04-02T10:26:01.591Z,19.37
2023-04-02T10:29:10.314Z,19.37
2023-04-02T10:32:04.606Z,19.38
2023-04-02T10:34:49.384Z,19.40
2023-04-02T10:37:35.996Z,19.42
2023-04-02T10:40:11.490Z,19.42
2023-04-02T10:43:15.539Z,19.41
2023-04-02T10:45:47.309Z,19.41
2023-04-02T10:48:20.800Z,19.41
2023-04-02T10:51:03.568Z,19.39
2023-04-02T10:54:21.927Z,19.37
2023-04-02T10:56:53.330Z,19.38
2023-04-02T10:59:32.206Z,19.36
2023-04-02T11:02:04.226Z,19.37
2023-04-02T11:04:41.852Z,19.35
2023-04-02T11:07:22.219Z,19.34
2023-04-02T11:09:53.644Z,19.35
2023-04-02T11:12:31.923Z,19.36
2023-04-02T11:14:59.779Z,19.36
2023-04-02T11:17:27.217Z,19.35
2023-04-02T11:19:54.560Z,19.35
2023-04-02T11:22:24.440Z,19.34
2023-04-02T11:24:54.522Z,19.32
2023-04-02T11:27:28.122Z,19.32
2023-04-02T11:30:23.062Z,19.31
2023-04-02T11:32:51.305Z,19.30
2023-04-02T11:35:25.512Z,19.29
2023-04-02T11:37:54.551Z,19.29
2023-04-02T11:40:44.659Z,19.27
2023-04-02T11:43:34.107Z,19.28
2023-04-02T11:46:01.485Z,19.26
2023-04-02T11:48:36.249Z,19.26
2023-04-02T11:51:36.239Z,19.26
2023-04-02T11:54:04.290Z,19.26
2023-04-02T11:57:01.360Z,19.25
2023-04-02T11:59:48.040Z,19.25
2023-04-02T12:02:28.343Z,19.24
2023-04-02T12:04:58.437Z,19.24
2023-04-02T12:07:46.728Z,19.24
2023-04-02T12:10:23.228Z,19.24
2023-04-02T12:12:51.533Z,19.24
2023-04-02T12:15:37.081Z,19.24
2023-04-02T12:18:19.313Z,19.26
2023-04-02T12:20:52.240Z,19.26
2023-04-02T12:23:23.974Z,19.27
2023-04-02T12:26:08.725Z,19.29
2023-04-02T12:28:38.188Z,19.29
2023-04-02T12:31:19.369Z,19.30
2023-04-02T12:33:46.839Z,19.30
2023-04-02T12:36:14.708Z,19.31
2023-04-02T12:38:48.558Z,19.32
2023-04-02T12:41:18.878Z,19.32
2023-04-02T12:43:46.183Z,19.32
2023-04-02T12:46:15.133Z,19.33
2023-04-02T12:48:42.654Z,19.36
2023-04-02T12:51:10.793Z,19.35
2023-04-02T12:53:40.828Z,19.36
2023-04-02T12:56:18.327Z,19.37
2023-04-02T12:58:54.714Z,19.37
2023-04-02T13:01:24.752Z,19.37
2023-04-02T13:04:04.603Z,19.38
2023-04-02T13:06:33.122Z,19.38
2023-04-02T13:09:02.001Z,19.39
2023-04-02T13:11:35.125Z,19.39
2023-04-02T13:14:03.309Z,19.40
2023-04-02T13:16:39.880Z,19.40
2023-04-02T13:19:19.045Z,19.40
2023-04-02T13:21:46.390Z,19.40
2023-04-02T13:24:21.663Z,19.41
2023-04-02T13:26:50.601Z,19.40
2023-04-02T13:29:21.829Z,19.41
2023-04-02T13:31:50.093Z,19.42
2023-04-02T13:34:18.386Z,19.41
2023-04-02T13:36:46.569Z,19.41
2023-04-02T13:39:14.069Z,19.41
2023-04-02T13:41:47.352Z,19.41
2023-04-02T13:44:29.371Z,19.41
2023-04-02T13:46:58.325Z,19.42
2023-04-02T13:49:26.232Z,19.41
2023-04-02T13:51:58.763Z,19.41
2023-04-02T13:55:01.387Z,19.42
2023-04-02T13:57:28.663Z,19.42
2023-04-02T13:59:56.270Z,19.41
2023-04-02T14:02:25.547Z,19.41
2023-04-02T14:05:34.463Z,19.41
2023-04-02T14:08:09.409Z,19.41
2023-04-02T14:11:07.175Z,19.42
2023-04-02T14:13:43.374Z,19.42
2023-04-02T14:16:54.803Z,19.41
2023-04-02T14:19:45.520Z,19.41
2023-04-02T14:22:43.584Z,19.40
2023-04-02T14:25:16.791Z,19.38
2023-04-02T14:27:49.620Z,19.40
2023-04-02T14:30:34.035Z,19.40
2023-04-02T14:33:13.514Z,19.39
2023-04-02T14:35:46.628Z,19.39
2023-04-02T14:38:13.889Z,19.39
2023-04-02T14:40:56.121Z,19.39
2023-04-02T14:43:35.995Z,19.39
2023-04-02T14:46:08.302Z,19.39
2023-04-02T14:48:54.351Z,19.37
2023-04-02T14:51:34.769Z,19.37
2023-04-02T14:54:28.236Z,19.37
2023-04-02T14:57:00.662Z,19.37
2023-04-02T14:59:34.105Z,19.37
2023-04-02T15:02:07.844Z,19.35
2023-04-02T15:04:45.829Z,19.37
2023-04-02T15:07:39.634Z,19.37
2023-04-02T15:10:15.917Z,19.38
2023-04-02T15:12:45.166Z,19.39
2023-04-02T15:15:38.984Z,19.39
2023-04-02T15:18:11.173Z,19.39
2023-04-02T15:20:48.738Z,19.40
2023-04-02T15:23:32.381Z,19.40
2023-04-02T15:26:24.375Z,19.42
2023-04-02T15:29:01.171Z,19.42
2023-04-02T15:31:28.881Z,19.42
2023-04-02T15:34:18.444Z,19.42
2023-04-02T15:36:51.805Z,19.43
2023-04-02T15:39:40.587Z,19.44
2023-04-02T15:42:37.028Z,19.42
2023-04-02T15:45:07.297Z,19.44
2023-04-02T15:47:38.578Z,19.43
2023-04-02T15:50:34.899Z,19.44
2023-04-02T15:53:39.025Z,19.43
2023-04-02T15:56:31.353Z,19.43
2023-04-02T15:59:33.888Z,19.43
2023-04-02T16:02:04.033Z,19.43
2023-04-02T16:04:53.216Z,19.43
2023-04-02T16:07:23.352Z,19.45
2023-04-02T16:10:02.722Z,19.46
2023-04-02T16:12:33.454Z,19.46
2023-04-02T16:15:15.042Z,19.41
2023-04-02T16:17:47.701Z,19.35
2023-04-02T16:20:28.724Z,19.33
2023-04-02T16:23:02.540Z,19.32
2023-04-02T16:25:39.151Z,19.33
2023-04-02T16:28:34.754Z,19.34
2023-04-02T16:31:18.825Z,19.36
2023-04-02T16:33:46.132Z,19.36
2023-04-02T16:36:29.823Z,19.37
2023-04-02T16:38:59.086Z,19.38
2023-04-02T16:41:50.872Z,19.40
2023-04-02T16:44:45.754Z,19.40
2023-04-02T16:47:46.583Z,19.39
2023-04-02T16:50:20.058Z,19.39
2023-04-02T16:53:01.815Z,19.39
2023-04-02T16:56:01.750Z,19.39
2023-04-02T16:58:59.538Z,19.39
2023-04-02T17:02:00.809Z,19.37
2023-04-02T17:04:51.357Z,19.37
2023-04-02T17:07:34.510Z,19.36
2023-04-02T17:10:34.054Z,19.36
2023-04-02T17:13:20.013Z,19.36
2023-04-02T17:16:13.704Z,19.36
2023-04-02T17:18:43.422Z,19.35
2023-04-02T17:21:17.504Z,19.35
2023-04-02T17:24:09.211Z,19.36
2023-04-02T17:26:37.846Z,19.35
2023-04-02T17:29:12.831Z,19.34
2023-04-02T17:31:42.946Z,19.35
2023-04-02T17:34:15.796Z,19.35
2023-04-02T17:37:13.963Z,19.33
2023-04-02T17:39:59.222Z,19.33
2023-04-02T17:42:52.304Z,19.33
2023-04-02T17:45:29.292Z,19.35
2023-04-02T17:48:02.021Z,19.34
2023-04-02T17:50:38.672Z,19.33
2023-04-02T17:53:20.532Z,19.33
2023-04-02T17:56:02.847Z,19.33
2023-04-02T17:58:53.095Z,19.32
2023-04-02T18:01:31.307Z,19.32
2023-04-02T18:03:58.634Z,19.32
2023-04-02T18:06:34.223Z,19.33
2023-04-02T18:09:07.043Z,19.32
2023-04-02T18:12:01.692Z,19.31
2023-04-02T18:14:37.694Z,19.32
2023-04-02T18:17:29.815Z,19.32
2023-04-02T18:20:08.866Z,19.32
2023-04-02T18:23:07.771Z,19.30
2023-04-02T18:25:56.781Z,19.31
2023-04-02T18:28:33.155Z,19.31
2023-04-02T18:31:18.309Z,19.31
2023-04-02T18:34:00.603Z,19.29
2023-04-02T18:36:56.252Z,19.30
2023-04-02T18:39:32.397Z,19.30
2023-04-02T18:42:14.739Z,19.30
2023-04-02T18:44:50.990Z,19.30
2023-04-02T18:47:30.659Z,19.30
2023-04-02T18:50:16.475Z,19.29
2023-04-02T18:52:44.958Z,19.29
2023-04-02T18:55:21.694Z,19.29
2023-04-02T18:57:55.577Z,19.29
2023-04-02T19:00:30.604Z,19.27
2023-04-02T19:03:10.011Z,19.27
2023-04-02T19:05:46.616Z,19.27
2023-04-02T19:08:24.282Z,19.26
2023-04-02T19:10:57.868Z,19.26
2023-04-02T19:13:25.188Z,19.26
2023-04-02T19:16:07.565Z,19.26
2023-04-02T19:18:54.533Z,19.26
2023-04-02T19:21:53.446Z,19.27
2023-04-02T19:24:27.304Z,19.28
2023-04-02T19:27:04.345Z,19.27
2023-04-02T19:30:02.248Z,19.29
2023-04-02T19:32:44.738Z,19.27
2023-04-02T19:35:27.015Z,19.29
2023-04-02T19:38:12.391Z,19.28
2023-04-02T19:40:56.400Z,19.29
2023-04-02T19:43:23.758Z,19.29
2023-04-02T19:45:53.283Z,19.29
2023-04-02T19:48:24.636Z,19.29
2023-04-02T19:50:52.256Z,19.30
2023-04-02T19:53:19.630Z,19.30
2023-04-02T19:55:47.049Z,19.31
2023-04-02T19:58:29.826Z,19.30
2023-04-02T20:00:57.350Z,19.30
2023-04-02T20:03:24.817Z,19.30
2023-04-02T20:05:52.479Z,19.31
2023-04-02T20:08:20.223Z,19.31
2023-04-02T20:10:47.434Z,19.32
2023-04-02T20:13:14.728Z,19.33
2023-04-02T20:15:42.091Z,19.31
2023-04-02T20:18:10.577Z,19.32
2023-04-02T20:20:39.443Z,19.31
2023-04-02T20:23:06.799Z,19.32
2023-04-02T20:25:34.053Z,19.33
2023-04-02T20:28:03.828Z,19.32
2023-04-02T20:30:32.411Z,19.32
2023-04-02T20:33:00.321Z,19.31
2023-04-02T20:35:29.384Z,19.32
2023-04-02T20:37:56.982Z,19.32
2023-04-02T20:40:25.305Z,19.33
2023-04-02T20:42:53.261Z,19.32
2023-04-02T20:45:20.516Z,19.33
2023-04-02T20:47:47.906Z,19.33
2023-04-02T20:50:15.638Z,19.33
2023-04-02T20:52:42.923Z,19.32
2023-04-02T20:55:10.903Z,19.33
2023-04-02T20:57:38.915Z,19.33
2023-04-02T21:00:08.248Z,19.32
2023-04-02T21:02:35.746Z,19.32
2023-04-02T21:05:03.494Z,19.33
2023-04-02T21:07:31.033Z,19.33
2023-04-02T21:09:58.489Z,19.33
2023-04-02T21:12:25.976Z,19.33
2023-04-02T21:14:58.126Z,19.33
2023-04-02T21:17:26.473Z,19.34
2023-04-02T21:19:53.754Z,19.35
2023-04-02T21:22:20.963Z,19.35
2023-04-02T21:24:48.322Z,19.35
2023-04-02T21:27:16.234Z,19.35
2023-04-02T21:29:43.534Z,19.36
2023-04-02T21:32:20.793Z,19.35
2023-04-02T21:34:49.335Z,19.35
2023-04-02T21:37:16.723Z,19.35
2023-04-02T21:39:44.347Z,19.35
2023-04-02T21:42:11.797Z,19.37
2023-04-02T21:44:39.635Z,19.36
2023-04-02T21:47:06.948Z,19.37
2023-04-02T21:49:34.258Z,19.37
2023-04-02T21:52:01.594Z,19.37
2023-04-02T21:54:29.621Z,19.38
2023-04-02T21:56:57.005Z,19.38
2023-04-02T21:59:24.349Z,19.38
2023-04-02T22:01:52.548Z,19.39
2023-04-02T22:04:23.038Z,19.39
2023-04-02T22:06:52.173Z,19.38
2023-04-02T22:09:24.787Z,19.39
2023-04-02T22:11:55.522Z,19.39
2023-04-02T22:14:22.979Z,19.39
2023-04-02T22:16:50.408Z,19.37
2023-04-02T22:19:17.786Z,19.39
2023-04-02T22:21:46.350Z,19.37
2023-04-02T22:24:17.656Z,19.39
2023-04-02T22:26:45.877Z,19.39
2023-04-02T22:29:13.589Z,19.37
2023-04-02T22:31:40.998Z,19.38
2023-04-02T22:34:08.515Z,19.37
2023-04-02T22:36:36.247Z,19.39
2023-04-02T22:39:09.761Z,19.39
2023-04-02T22:41:37.133Z,19.37
2023-04-02T22:44:04.658Z,19.37
2023-04-02T22:46:32.092Z,19.37
2023-04-02T22:48:59.453Z,19.36
2023-04-02T22:51:28.019Z,19.35
2023-04-02T22:53:56.246Z,19.34
2023-04-02T22:56:31.811Z,19.34
2023-04-02T22:58:59.878Z,19.34
2023-04-02T23:01:31.613Z,19.33
2023-04-02T23:03:59.445Z,19.33
2023-04-02T23:06:27.813Z,19.32
2023-04-02T23:08:55.419Z,19.31
2023-04-02T23:11:24.941Z,19.30
2023-04-02T23:13:54.273Z,19.30
2023-04-02T23:16:23.038Z,19.29
2023-04-02T23:18:51.057Z,19.28
2023-04-02T23:21:19.912Z,19.27
2023-04-02T23:23:48.280Z,19.27
2023-04-02T23:26:24.538Z,19.27
2023-04-02T23:28:53.043Z,19.27
2023-04-02T23:31:22.452Z,19.25
2023-04-02T23:33:51.542Z,19.25
2023-04-02T23:36:30.466Z,19.26
2023-04-02T23:39:04.440Z,19.25
2023-04-02T23:41:32.164Z,19.25
2023-04-02T23:43:59.742Z,19.25
2023-04-02T23:46:28.932Z,19.24
2023-04-02T23:48:57.424Z,19.24
2023-04-02T23:51:25.539Z,19.23
2023-04-02T23:53:55.327Z,19.23
2023-04-02T23:56:23.180Z,19.23
2023-04-02T23:58:51.070Z,19.23
